Time;durP1;ratioP1;P1;durP2;ratioP2;P2;SDS_P1;SDS_P2;PMS_P1;PMS_P2;Temp;Humidity;BMP_temperature;BMP_pressure;BME280_temperature;BME280_humidity;BME280_pressure;Samples;Min_cycle;Max_cycle;Signal;HPM_P1;HPM_P2
2022/05/12 00:01:59;;;;;;;5.70;4.70;;;16.70;98.50;;;;;;5073845;28;20444;-45
2022/05/12 00:04:27;;;;;;;5.47;4.20;;;16.70;98.00;;;;;;5074008;28;20602;-46
2022/05/12 00:06:54;;;;;;;9.73;4.40;;;16.70;98.50;;;;;;5073447;28;20494;-44
2022/05/12 00:09:23;;;;;;;5.70;4.37;;;16.50;98.30;;;;;;5073594;28;20490;-45
2022/05/12 00:11:50;;;;;;;4.83;4.33;;;16.60;98.60;;;;;;5073673;28;20480;-44
2022/05/12 00:14:17;;;;;;;10.50;5.07;;;16.40;98.60;;;;;;5072672;28;20460;-45
2022/05/12 00:16:44;;;;;;;4.30;3.80;;;16.30;98.80;;;;;;5073603;28;20440;-45
2022/05/12 00:19:11;;;;;;;7.57;4.53;;;16.30;98.90;;;;;;5073246;28;20934;-45
2022/05/12 00:21:38;;;;;;;4.80;4.40;;;16.20;98.60;;;;;;5073484;28;20476;-44
2022/05/12 00:24:06;;;;;;;5.70;4.57;;;16.10;99.00;;;;;;5073575;28;20492;-45
2022/05/12 00:26:37;;;;;;;7.13;4.83;;;16.20;99.20;;;;;;5073120;28;20531;-46
2022/05/12 00:29:08;;;;;;;4.80;4.03;;;16.30;99.10;;;;;;5073128;28;20479;-45
2022/05/12 00:31:37;;;;;;;9.40;4.50;;;16.30;99.00;;;;;;5073245;28;20440;-46
2022/05/12 00:34:05;;;;;;;5.17;4.70;;;16.30;99.00;;;;;;5072671;28;20543;-44
2022/05/12 00:36:32;;;;;;;5.10;4.40;;;16.30;99.40;;;;;;5073011;28;20445;-44
2022/05/12 00:38:59;;;;;;;5.17;4.67;;;16.30;99.10;;;;;;5072853;28;20479;-45
2022/05/12 00:41:26;;;;;;;4.93;4.43;;;16.20;98.80;;;;;;5073036;28;20476;-44
2022/05/12 00:43:56;;;;;;;7.50;4.73;;;16.40;98.90;;;;;;5072753;28;20456;-44
2022/05/12 00:46:26;;;;;;;5.60;4.50;;;16.50;98.60;;;;;;5073035;28;20460;-44
2022/05/12 00:48:56;;;;;;;4.53;4.10;;;16.50;99.10;;;;;;5072838;28;20523;-44
2022/05/12 00:51:27;;;;;;;5.60;5.10;;;16.30;98.80;;;;;;5072906;28;20451;-44
2022/05/12 00:53:57;;;;;;;4.60;4.00;;;16.40;99.10;;;;;;5123583;22;20491;-44
2022/05/12 00:56:24;;;;;;;5.00;4.50;;;16.30;99.20;;;;;;5093017;28;20432;-44
2022/05/12 00:58:58;;;;;;;4.77;4.37;;;16.40;99.10;;;;;;5092387;28;20467;-45
2022/05/12 01:01:25;;;;;;;4.43;3.77;;;16.50;99.00;;;;;;5093038;28;20471;-44
2022/05/12 01:03:53;;;;;;;5.30;4.33;;;16.30;99.20;;;;;;5092797;28;20509;-45
2022/05/12 01:06:20;;;;;;;5.80;4.70;;;16.40;99.50;;;;;;5092617;28;20436;-44
2022/05/12 01:08:47;;;;;;;4.53;3.90;;;16.30;99.60;;;;;;5092520;28;20475;-44
2022/05/12 01:11:17;;;;;;;5.33;4.67;;;16.40;99.60;;;;;;5092656;28;20855;-45
2022/05/12 01:13:49;;;;;;;5.03;4.40;;;16.40;99.90;;;;;;5092650;28;20463;-45
2022/05/12 01:16:36;;;;;;;6.37;4.80;;;16.20;99.50;;;;;;5092898;28;20531;-44
2022/05/12 01:19:05;;;;;;;4.63;4.20;;;16.10;99.40;;;;;;5092463;28;20431;-45
2022/05/12 01:21:32;;;;;;;5.80;4.77;;;16.10;99.70;;;;;;5092450;28;20979;-44
2022/05/12 01:24:01;;;;;;;5.07;4.60;;;16.20;99.70;;;;;;5092499;28;20972;-44
2022/05/12 01:26:28;;;;;;;4.73;4.33;;;16.10;99.90;;;;;;5092474;28;20436;-45
2022/05/12 01:28:55;;;;;;;5.33;4.80;;;16.20;99.80;;;;;;5092377;28;20435;-45
2022/05/12 01:31:23;;;;;;;5.20;4.70;;;16.30;99.70;;;;;;5092503;28;20467;-45
2022/05/12 01:33:51;;;;;;;7.37;4.00;;;16.30;99.50;;;;;;5091928;28;20489;-44
2022/05/12 01:36:19;;;;;;;5.83;4.50;;;16.20;99.90;;;;;;5092719;28;20534;-44
2022/05/12 01:38:46;;;;;;;5.00;4.47;;;16.20;99.90;;;;;;5092024;28;20497;-45
2022/05/12 01:41:15;;;;;;;6.43;4.33;;;16.20;99.90;;;;;;5092583;28;20478;-44
2022/05/12 01:43:42;;;;;;;4.93;4.50;;;16.30;99.90;;;;;;5092116;28;20538;-45
2022/05/12 01:46:09;;;;;;;4.93;4.17;;;16.00;99.80;;;;;;5091907;28;20866;-44
2022/05/12 01:48:36;;;;;;;5.20;4.57;;;16.00;99.90;;;;;;5091968;28;20489;-44
2022/05/12 01:51:04;;;;;;;4.93;4.50;;;16.10;99.90;;;;;;5091956;28;20471;-45
2022/05/12 01:53:31;;;;;;;6.20;4.70;;;16.10;99.90;;;;;;5091942;28;20510;-45
2022/05/12 01:55:59;;;;;;;5.13;4.63;;;16.00;99.90;;;;;;5092008;28;20843;-45
2022/05/12 01:58:27;;;;;;;6.97;4.80;;;15.90;99.90;;;;;;5091607;28;20467;-45
2022/05/12 02:00:54;;;;;;;8.17;5.50;;;15.90;99.90;;;;;;5092046;28;20904;-44
2022/05/12 02:03:21;;;;;;;6.23;4.87;;;15.70;99.90;;;;;;5092030;28;20498;-44
2022/05/12 02:05:48;;;;;;;5.00;4.50;;;15.80;99.90;;;;;;5091562;28;20439;-45
2022/05/12 02:08:17;;;;;;;4.40;4.00;;;15.90;99.90;;;;;;5091263;28;20500;-45
2022/05/12 02:10:47;;;;;;;5.57;5.07;;;15.90;99.90;;;;;;5092069;28;20478;-44
2022/05/12 02:13:18;;;;;;;5.10;4.57;;;15.90;99.90;;;;;;5091287;28;20468;-45
2022/05/12 02:15:47;;;;;;;5.80;4.47;;;16.00;99.90;;;;;;5091815;28;20451;-45
2022/05/12 02:18:15;;;;;;;5.10;4.70;;;16.10;99.90;;;;;;5091265;28;20439;-45
2022/05/12 02:20:42;;;;;;;6.23;5.07;;;16.00;99.90;;;;;;5091450;28;20506;-44
2022/05/12 02:23:09;;;;;;;4.93;4.43;;;16.00;99.90;;;;;;5091491;28;20491;-45
2022/05/12 02:25:36;;;;;;;6.30;5.17;;;16.10;99.90;;;;;;5091448;28;20795;-44
2022/05/12 02:28:03;;;;;;;4.63;4.23;;;16.10;99.90;;;;;;5091370;28;20530;-44
2022/05/12 02:30:31;;;;;;;6.27;5.63;;;16.10;99.90;;;;;;5091418;28;20526;-45
2022/05/12 02:33:00;;;;;;;6.27;4.80;;;16.10;99.90;;;;;;5091305;28;20488;-45
2022/05/12 02:35:28;;;;;;;8.57;5.10;;;16.00;99.90;;;;;;5090484;28;20443;-45
2022/05/12 02:37:56;;;;;;;4.60;4.20;;;15.90;99.90;;;;;;5091428;28;20467;-44
2022/05/12 02:40:24;;;;;;;5.70;4.77;;;16.00;99.90;;;;;;5091113;28;20925;-44
2022/05/12 02:42:51;;;;;;;5.90;5.17;;;15.60;99.90;;;;;;5091214;28;20492;-44
2022/05/12 02:45:19;;;;;;;8.93;4.50;;;15.80;99.90;;;;;;5091195;28;20861;-45
2022/05/12 02:47:46;;;;;;;8.40;4.80;;;15.90;99.90;;;;;;5090811;28;20513;-44
2022/05/12 02:50:16;;;;;;;5.53;5.03;;;16.00;99.90;;;;;;5090753;28;20475;-45
2022/05/12 02:52:43;;;;;;;6.40;4.33;;;16.10;99.90;;;;;;5091231;28;20481;-45
2022/05/12 02:55:11;;;;;;;4.83;4.40;;;16.10;99.90;;;;;;5091516;28;20465;-43
2022/05/12 02:57:39;;;;;;;5.23;4.80;;;16.00;99.90;;;;;;5091130;28;20791;-44
2022/05/12 03:00:09;;;;;;;5.10;4.60;;;16.00;99.90;;;;;;5091095;28;20449;-44
2022/05/12 03:02:36;;;;;;;5.43;4.80;;;16.00;99.90;;;;;;5090975;28;20475;-45
2022/05/12 03:05:02;;;;;;;5.90;4.83;;;15.90;99.90;;;;;;5091389;28;20443;-43
2022/05/12 03:07:31;;;;;;;5.67;5.17;;;15.80;99.90;;;;;;5090857;28;20964;-45
2022/05/12 03:09:58;;;;;;;6.90;4.90;;;15.90;99.90;;;;;;5090669;28;20534;-45
2022/05/12 03:12:25;;;;;;;7.93;4.97;;;15.80;99.90;;;;;;5090835;28;20440;-45
2022/05/12 03:14:52;;;;;;;5.83;5.30;;;15.90;99.90;;;;;;5091167;28;20444;-45
2022/05/12 03:17:19;;;;;;;6.20;5.60;;;15.90;99.90;;;;;;5090861;28;21007;-43
2022/05/12 03:19:46;;;;;;;5.00;4.60;;;15.80;99.90;;;;;;5090919;28;20523;-44
2022/05/12 03:22:13;;;;;;;7.40;5.57;;;15.70;99.90;;;;;;5091025;28;20558;-44
2022/05/12 03:24:41;;;;;;;7.47;4.70;;;15.80;99.90;;;;;;5090894;28;20841;-44
2022/05/12 03:27:08;;;;;;;5.80;5.30;;;15.70;99.90;;;;;;5090919;28;20435;-44
2022/05/12 03:29:35;;;;;;;5.83;5.00;;;15.80;99.90;;;;;;5090518;28;20435;-45
2022/05/12 03:32:03;;;;;;;6.83;5.10;;;15.60;99.90;;;;;;5090688;28;20515;-44
2022/05/12 03:34:31;;;;;;;5.23;4.73;;;15.60;99.90;;;;;;5090594;28;20466;-44
2022/05/12 03:36:58;;;;;;;5.77;4.97;;;15.50;99.90;;;;;;5090745;28;20439;-45
2022/05/12 03:39:25;;;;;;;5.73;5.13;;;15.60;99.90;;;;;;5090607;28;20467;-44
2022/05/12 03:41:53;;;;;;;6.60;5.20;;;15.60;99.90;;;;;;5090656;28;20544;-45
2022/05/12 03:47:05;;;;;;;5.80;5.20;;;15.50;99.90;;;;;;5090633;28;20434;-45
2022/05/12 03:49:31;;;;;;;6.20;5.60;;;15.50;99.90;;;;;;5093333;28;20494;-44
2022/05/12 03:51:58;;;;;;;6.13;5.60;;;15.50;99.90;;;;;;5094460;28;20469;-44
2022/05/12 03:54:25;;;;;;;6.90;5.43;;;15.50;99.90;;;;;;5094103;28;20829;-44
2022/05/12 03:56:54;;;;;;;4.77;4.30;;;15.60;99.90;;;;;;5094371;28;20470;-47
2022/05/12 03:59:21;;;;;;;5.87;5.27;;;15.60;99.90;;;;;;5093823;28;20482;-47
2022/05/12 04:01:47;;;;;;;5.97;5.43;;;15.60;99.90;;;;;;5094034;28;20521;-44
2022/05/12 04:04:14;;;;;;;5.30;4.80;;;15.60;99.90;;;;;;5094028;28;21012;-44
2022/05/12 04:06:42;;;;;;;7.17;6.47;;;15.50;99.90;;;;;;5093899;28;20428;-45
2022/05/12 04:09:10;;;;;;;6.17;5.57;;;15.20;99.90;;;;;;5093966;28;20504;-44
2022/05/12 04:11:37;;;;;;;7.57;5.53;;;15.30;99.90;;;;;;5094060;28;20872;-43
2022/05/12 04:14:06;;;;;;;6.30;5.70;;;15.00;99.90;;;;;;5093894;28;20474;-44
2022/05/12 04:16:33;;;;;;;6.10;5.50;;;15.10;99.90;;;;;;5094065;28;20443;-44
2022/05/12 04:19:00;;;;;;;5.40;4.90;;;15.20;99.90;;;;;;5093898;28;20536;-44
2022/05/12 04:21:30;;;;;;;6.93;6.03;;;15.20;99.90;;;;;;5093721;28;21042;-44
2022/05/12 04:23:56;;;;;;;7.47;6.00;;;15.40;99.90;;;;;;5093906;28;20471;-44
2022/05/12 04:26:23;;;;;;;6.27;5.33;;;15.10;99.90;;;;;;5093660;28;20439;-44
2022/05/12 04:28:50;;;;;;;7.37;5.30;;;15.30;99.90;;;;;;5093798;28;20439;-46
2022/05/12 04:31:19;;;;;;;6.10;5.30;;;15.40;99.90;;;;;;5093681;28;20475;-44
2022/05/12 04:36:30;;;;;;;5.30;4.70;;;15.50;99.90;;;;;;5093903;28;20419;-44
2022/05/12 04:38:59;;;;;;;6.70;5.60;;;15.60;99.90;;;;;;5093372;28;20798;-46
2022/05/12 04:41:26;;;;;;;6.10;5.30;;;15.70;99.90;;;;;;5093554;28;20502;-44
2022/05/12 04:43:54;;;;;;;6.00;5.40;;;15.70;99.90;;;;;;5093316;28;20882;-44
2022/05/12 04:46:24;;;;;;;6.00;5.40;;;15.80;99.90;;;;;;5093462;28;21019;-44
2022/05/12 04:48:51;;;;;;;6.23;5.10;;;15.90;99.90;;;;;;5093461;28;20444;-45
2022/05/12 04:51:18;;;;;;;5.93;5.33;;;15.90;99.90;;;;;;5093191;28;21013;-44
2022/05/12 04:53:45;;;;;;;6.20;5.63;;;16.00;99.90;;;;;;5092981;28;20596;-44
2022/05/12 04:56:12;;;;;;;7.23;6.50;;;16.00;99.90;;;;;;5093161;28;20461;-45
2022/05/12 04:58:39;;;;;;;6.97;6.27;;;15.90;99.90;;;;;;5092852;28;20436;-44
2022/05/12 05:01:07;;;;;;;7.00;5.43;;;15.70;99.90;;;;;;5093158;28;20435;-44
2022/05/12 05:03:35;;;;;;;7.40;5.90;;;15.60;99.90;;;;;;5093037;28;20494;-44
2022/05/12 05:06:02;;;;;;;6.27;5.67;;;15.70;99.90;;;;;;5093111;28;20486;-44
2022/05/12 05:08:29;;;;;;;6.10;5.60;;;15.70;99.90;;;;;;5092847;28;20523;-44
2022/05/12 05:10:56;;;;;;;8.50;5.40;;;15.80;99.90;;;;;;5092695;28;20961;-44
2022/05/12 05:13:24;;;;;;;8.50;6.17;;;15.70;99.90;;;;;;5092976;28;20646;-44
2022/05/12 05:15:53;;;;;;;8.07;6.40;;;15.80;99.90;;;;;;5093157;28;20452;-44
2022/05/12 05:18:21;;;;;;;7.00;6.07;;;15.80;99.90;;;;;;5092688;28;20454;-44
2022/05/12 05:20:50;;;;;;;6.00;5.40;;;15.70;99.90;;;;;;5092724;28;20481;-44
2022/05/12 05:23:21;;;;;;;8.27;5.70;;;15.80;99.90;;;;;;5092585;28;20848;-44
2022/05/12 05:25:48;;;;;;;7.90;5.63;;;15.80;99.90;;;;;;5092538;28;20452;-44
2022/05/12 05:28:16;;;;;;;6.50;5.20;;;15.80;99.90;;;;;;5092505;28;20443;-44
2022/05/12 05:30:43;;;;;;;6.57;5.30;;;15.90;99.90;;;;;;5092764;28;20844;-44
2022/05/12 05:33:11;;;;;;;6.43;5.80;;;15.80;99.90;;;;;;5092491;28;20486;-45
2022/05/12 05:35:38;;;;;;;7.70;6.27;;;15.80;99.90;;;;;;5092059;28;20848;-44
2022/05/12 05:38:07;;;;;;;5.93;5.33;;;15.90;99.90;;;;;;5092204;28;20497;-44
2022/05/12 05:40:34;;;;;;;7.90;5.93;;;15.90;99.90;;;;;;5092689;28;20439;-44
2022/05/12 05:43:01;;;;;;;5.53;5.03;;;15.90;99.90;;;;;;5092265;28;20740;-46
2022/05/12 05:45:28;;;;;;;6.90;6.10;;;16.00;99.90;;;;;;5092324;28;20478;-45
2022/05/12 05:48:02;;;;;;;6.70;5.63;;;16.10;99.90;;;;;;5092311;28;21010;-46
2022/05/12 05:53:23;;;;;;;8.37;5.67;;;16.00;99.90;;;;;;5092457;28;20444;-47
2022/05/12 05:53:24;;;;;;;6.20;5.60;;;15.90;99.90;;;;;;5091973;28;20841;-46
2022/05/12 05:55:52;;;;;;;7.07;5.53;;;15.90;99.90;;;;;;5092316;28;20467;-44
2022/05/12 05:58:19;;;;;;;5.23;4.67;;;16.00;99.90;;;;;;5091881;28;20949;-44
2022/05/12 06:00:47;;;;;;;6.17;5.57;;;15.90;99.90;;;;;;5092143;28;20474;-44
2022/05/12 06:03:14;;;;;;;6.93;5.40;;;15.90;99.90;;;;;;5091742;28;20518;-44
2022/05/12 06:05:41;;;;;;;6.50;5.50;;;15.90;99.90;;;;;;5092046;28;20462;-44
2022/05/12 06:08:10;;;;;;;5.43;5.03;;;16.00;99.90;;;;;;5091650;28;20526;-46
2022/05/12 06:10:39;;;;;;;5.53;4.93;;;16.20;99.90;;;;;;5091049;28;20435;-44
2022/05/12 06:13:06;;;;;;;9.63;5.97;;;16.30;99.90;;;;;;5091571;28;20822;-44
2022/05/12 06:15:34;;;;;;;14.97;7.47;;;16.50;99.90;;;;;;5092142;28;20485;-44
2022/05/12 06:18:01;;;;;;;32.30;9.10;;;16.80;99.90;;;;;;5091805;28;20937;-45
2022/05/12 06:20:28;;;;;;;12.70;6.57;;;17.00;99.90;;;;;;5091509;28;20443;-44
2022/05/12 06:22:55;;;;;;;8.57;5.23;;;17.20;99.90;;;;;;5091395;28;20555;-44
2022/05/12 06:25:23;;;;;;;10.40;6.27;;;17.40;99.90;;;;;;5091863;28;20443;-44
2022/05/12 06:27:51;;;;;;;8.80;6.23;;;17.50;99.90;;;;;;5091326;28;20816;-44
2022/05/12 06:30:19;;;;;;;10.40;6.30;;;17.60;99.90;;;;;;5091368;28;20443;-44
2022/05/12 06:32:46;;;;;;;14.63;6.83;;;17.70;99.90;;;;;;5091437;28;20483;-45
2022/05/12 06:35:16;;;;;;;8.27;6.00;;;17.70;99.90;;;;;;5091502;28;20475;-44
2022/05/12 06:37:43;;;;;;;7.70;5.60;;;17.80;99.90;;;;;;5091301;28;20444;-45
2022/05/12 06:40:11;;;;;;;9.10;5.90;;;17.80;99.90;;;;;;5091530;28;20471;-44
2022/05/12 06:42:41;;;;;;;13.10;8.07;;;17.80;99.90;;;;;;5091247;28;20476;-46
2022/05/12 06:45:11;;;;;;;9.33;6.80;;;17.80;99.90;;;;;;5091819;28;20850;-44
2022/05/12 06:47:38;;;;;;;13.67;8.17;;;17.90;99.90;;;;;;5091560;28;20439;-44
2022/05/12 06:50:07;;;;;;;19.60;9.47;;;17.90;99.90;;;;;;5090951;28;20482;-46
2022/05/12 06:52:33;;;;;;;16.10;9.20;;;17.90;99.90;;;;;;5091283;28;20459;-45
2022/05/12 06:55:00;;;;;;;10.17;8.30;;;18.00;99.90;;;;;;5092453;28;21014;-44
2022/05/12 06:57:28;;;;;;;12.63;7.87;;;18.10;99.90;;;;;;5091307;28;20439;-45
2022/05/12 06:59:55;;;;;;;6.70;5.20;;;18.20;99.90;;;;;;5090955;28;20439;-44
2022/05/12 07:02:25;;;;;;;8.48;5.80;;;18.20;99.90;;;;;;5090128;28;20455;-45
2022/05/12 07:04:53;;;;;;;15.77;6.97;;;18.30;99.90;;;;;;5091146;28;20198;-45
2022/05/12 07:07:21;;;;;;;13.70;7.37;;;18.30;99.90;;;;;;5091174;28;20450;-46
2022/05/12 07:09:52;;;;;;;9.90;6.00;;;18.40;99.90;;;;;;5091312;28;20444;-44
2022/05/12 07:12:19;;;;;;;7.77;6.53;;;18.40;99.90;;;;;;5091182;28;20925;-44
2022/05/12 07:14:46;;;;;;;6.67;6.07;;;18.50;99.90;;;;;;5091170;28;20502;-45
2022/05/12 07:17:13;;;;;;;7.90;6.37;;;18.60;99.90;;;;;;5091184;28;20501;-45
2022/05/12 07:19:42;;;;;;;22.50;8.83;;;18.60;99.90;;;;;;5090849;28;20462;-45
2022/05/12 07:27:38;;;;;;;27.37;10.00;;;18.80;99.90;;;;;;5095052;28;20454;-44
2022/05/12 07:30:07;;;;;;;31.77;9.00;;;18.90;99.90;;;;;;5094822;28;20500;-44
2022/05/12 07:32:37;;;;;;;67.77;16.60;;;18.90;99.90;;;;;;5094789;28;20439;-45
2022/05/12 07:35:06;;;;;;;7.47;5.50;;;18.90;99.90;;;;;;5094715;28;20451;-44
2022/05/12 07:37:34;;;;;;;6.50;5.00;;;19.00;99.90;;;;;;5094507;28;20953;-44
2022/05/12 07:40:00;;;;;;;96.73;21.20;;;19.20;99.90;;;;;;5094485;28;20440;-45
2022/05/12 07:42:29;;;;;;;59.77;15.40;;;19.40;99.90;;;;;;5094649;28;20661;-45
2022/05/12 07:44:56;;;;;;;84.87;20.60;;;19.70;99.90;;;;;;5094269;28;20538;-45
2022/05/12 07:47:23;;;;;;;36.77;10.80;;;19.90;99.90;;;;;;5094541;28;20518;-45
2022/05/12 07:49:50;;;;;;;56.17;13.17;;;20.10;99.90;;;;;;5094503;28;20522;-42
2022/05/12 07:52:18;;;;;;;31.53;9.53;;;20.30;99.90;;;;;;5094398;28;20905;-45
2022/05/12 07:54:45;;;;;;;18.43;6.80;;;20.40;99.90;;;;;;5094325;28;20506;-48
2022/05/12 07:57:12;;;;;;;53.70;14.63;;;20.50;99.90;;;;;;5094688;28;20470;-45
2022/05/12 07:59:39;;;;;;;19.73;8.87;;;20.70;99.90;;;;;;5094193;28;20467;-45
2022/05/12 08:02:06;;;;;;;26.20;10.33;;;20.60;99.90;;;;;;5093954;28;20856;-45
2022/05/12 08:04:35;;;;;;;36.80;11.80;;;20.70;99.90;;;;;;5094030;28;20459;-46
2022/05/12 08:07:02;;;;;;;31.37;10.23;;;20.70;99.90;;;;;;5094110;28;20467;-48
2022/05/12 08:09:30;;;;;;;26.13;10.57;;;20.70;99.90;;;;;;5094107;28;20467;-45
2022/05/12 08:11:57;;;;;;;32.20;9.27;;;20.90;99.90;;;;;;5093874;28;20444;-45
2022/05/12 08:14:24;;;;;;;45.87;13.60;;;20.90;99.90;;;;;;5094126;28;20448;-45
2022/05/12 08:16:51;;;;;;;30.43;11.90;;;21.00;99.90;;;;;;5093919;28;20450;-45
2022/05/12 08:19:18;;;;;;;51.83;12.10;;;21.10;98.50;;;;;;5093646;28;20440;-44
2022/05/12 08:21:45;;;;;;;37.27;11.93;;;21.20;99.90;;;;;;5093916;28;20486;-45
2022/05/12 08:24:12;;;;;;;27.47;11.50;;;21.50;99.90;;;;;;5093843;28;20571;-44
2022/05/12 08:26:42;;;;;;;28.20;8.97;;;21.60;99.50;;;;;;5093969;28;20529;-46
2022/05/12 08:29:09;;;;;;;26.33;9.37;;;21.90;99.90;;;;;;5093563;28;20444;-47
2022/05/12 08:31:36;;;;;;;25.47;7.80;;;22.00;99.90;;;;;;5093693;28;20475;-45
2022/05/12 08:34:03;;;;;;;13.97;8.17;;;21.90;99.90;;;;;;5092761;28;20520;-46
2022/05/12 08:36:30;;;;;;;17.93;9.07;;;22.10;99.70;;;;;;5093672;28;20485;-45
2022/05/12 08:38:57;;;;;;;14.57;7.47;;;22.20;98.80;;;;;;5093197;28;20443;-45
2022/05/12 08:41:34;;;;;;;20.80;8.07;;;22.20;97.80;;;;;;5093657;28;20534;-46
2022/05/12 08:44:08;;;;;;;7.57;6.40;;;22.40;98.00;;;;;;5093165;28;20479;-44
2022/05/12 08:46:41;;;;;;;14.67;7.80;;;22.40;97.20;;;;;;5093634;28;20420;-44
2022/05/12 08:49:19;;;;;;;9.73;6.50;;;22.40;97.50;;;;;;5093021;28;20940;-48
2022/05/12 08:51:50;;;;;;;22.60;9.20;;;22.30;96.50;;;;;;5093081;28;20946;-44
2022/05/12 08:54:21;;;;;;;22.33;9.30;;;22.50;98.90;;;;;;5093141;28;20468;-45
2022/05/12 08:56:49;;;;;;;45.47;12.17;;;22.70;97.10;;;;;;5093571;28;20489;-45
2022/05/12 08:59:18;;;;;;;34.87;10.10;;;22.70;95.40;;;;;;5093107;28;20467;-45
2022/05/12 09:01:55;;;;;;;17.00;7.63;;;22.90;95.20;;;;;;5093274;28;20475;-45
2022/05/12 09:04:46;;;;;;;18.97;8.33;;;23.10;94.20;;;;;;5092955;28;20510;-46
2022/05/12 09:07:18;;;;;;;28.37;8.40;;;23.20;94.80;;;;;;5093112;28;20500;-45
2022/05/12 09:09:54;;;;;;;11.03;6.23;;;23.20;93.50;;;;;;5093085;28;20486;-45
2022/05/12 09:12:33;;;;;;;18.30;7.67;;;23.40;93.40;;;;;;5092675;28;20845;-45
2022/05/12 09:15:04;;;;;;;19.03;8.50;;;23.50;93.90;;;;;;5092750;28;20443;-45
2022/05/12 09:17:38;;;;;;;9.63;5.43;;;23.60;93.60;;;;;;5092806;28;20808;-46
2022/05/12 09:20:09;;;;;;;9.27;5.20;;;23.60;93.40;;;;;;5092752;28;20440;-45
2022/05/12 09:22:37;;;;;;;5.93;5.33;;;23.60;92.20;;;;;;5092746;28;20442;-45
2022/05/12 09:25:06;;;;;;;11.03;7.40;;;23.50;93.90;;;;;;5092592;28;20435;-44
2022/05/12 09:27:35;;;;;;;10.13;8.73;;;23.80;96.10;;;;;;5092385;28;20850;-45
2022/05/12 09:30:06;;;;;;;13.47;6.77;;;23.70;96.30;;;;;;5092659;28;20476;-45
2022/05/12 09:32:37;;;;;;;15.73;8.63;;;23.80;95.00;;;;;;5092338;28;20447;-46
2022/05/12 09:35:19;;;;;;;6.50;5.90;;;23.70;96.70;;;;;;5092518;28;20444;-45
2022/05/12 09:37:46;;;;;;;17.70;7.90;;;23.70;97.40;;;;;;5092530;28;20446;-46
2022/05/12 09:40:22;;;;;;;22.13;9.20;;;24.00;96.30;;;;;;5092105;28;20466;-45
2022/05/12 09:42:52;;;;;;;15.40;8.30;;;24.20;95.40;;;;;;5092521;28;20515;-44
2022/05/12 09:45:32;;;;;;;14.13;7.70;;;24.10;96.40;;;;;;5091732;28;20469;-45
2022/05/12 09:48:27;;;;;;;20.87;8.03;;;24.40;94.80;;;;;;5092015;28;20995;-45
2022/05/12 09:51:12;;;;;;;17.13;7.93;;;24.50;94.60;;;;;;5092226;28;20982;-45
2022/05/12 09:53:39;;;;;;;11.07;7.43;;;24.50;94.80;;;;;;5092164;28;20874;-46
2022/05/12 09:56:09;;;;;;;16.90;7.37;;;24.60;95.00;;;;;;5092331;28;20452;-45
2022/05/12 09:58:39;;;;;;;10.40;7.77;;;24.70;94.30;;;;;;5092024;28;20485;-45
2022/05/12 10:01:19;;;;;;;19.80;7.80;;;24.70;94.10;;;;;;5092324;28;20439;-45
2022/05/12 10:09:23;;;;;;;8.50;6.80;;;24.80;94.40;;;;;;5091648;28;20418;-45
2022/05/12 10:12:01;;;;;;;10.73;7.60;;;24.80;94.50;;;;;;5091551;28;20471;-45
2022/05/12 10:14:39;;;;;;;11.40;8.17;;;24.80;95.20;;;;;;5092086;28;20825;-45
2022/05/12 10:17:14;;;;;;;14.30;9.00;;;24.90;94.80;;;;;;5091729;28;20792;-45
2022/05/12 10:19:42;;;;;;;10.63;7.70;;;24.90;94.00;;;;;;5091547;28;20470;-45
2022/05/12 10:22:14;;;;;;;10.13;6.33;;;24.90;94.10;;;;;;5091883;28;20444;-45
2022/05/12 10:24:58;;;;;;;11.00;7.23;;;24.90;94.20;;;;;;5090749;28;20564;-47
2022/05/12 10:27:35;;;;;;;10.03;7.10;;;25.00;94.60;;;;;;5091370;28;20933;-46
2022/05/12 10:30:15;;;;;;;16.50;7.77;;;25.00;93.50;;;;;;5091254;28;20877;-45
2022/05/12 10:32:56;;;;;;;24.10;8.63;;;25.00;93.50;;;;;;5091191;28;20475;-45
2022/05/12 10:35:28;;;;;;;10.40;7.83;;;25.10;92.90;;;;;;5091212;28;20440;-48
2022/05/12 10:38:04;;;;;;;7.10;5.83;;;25.10;91.80;;;;;;5091741;28;20447;-45
2022/05/12 10:40:37;;;;;;;7.40;6.13;;;25.10;92.50;;;;;;5091487;28;20435;-46
2022/05/12 10:43:33;;;;;;;7.53;6.43;;;25.00;93.30;;;;;;5090771;28;20467;-47
2022/05/12 10:46:11;;;;;;;14.10;6.50;;;25.20;94.40;;;;;;5088340;28;20501;-45
2022/05/12 10:48:50;;;;;;;6.50;5.50;;;25.20;92.30;;;;;;5091245;28;20639;-45
2022/05/12 10:51:31;;;;;;;6.53;5.93;;;25.30;92.80;;;;;;5091455;28;20477;-45
2022/05/12 10:54:13;;;;;;;6.87;6.20;;;25.20;92.00;;;;;;5090934;28;20493;-45
2022/05/12 10:56:47;;;;;;;8.97;5.90;;;25.20;93.10;;;;;;5091927;28;20467;-45
2022/05/12 10:59:38;;;;;;;8.30;5.37;;;25.20;91.70;;;;;;5095514;28;20463;-45
2022/05/12 11:02:12;;;;;;;20.53;8.20;;;25.20;90.50;;;;;;5095478;28;20440;-46
2022/05/12 11:04:44;;;;;;;10.43;5.17;;;25.30;91.70;;;;;;5094771;28;20511;-47
2022/05/12 11:07:20;;;;;;;9.60;5.53;;;25.40;90.40;;;;;;5095351;28;20486;-44
2022/05/12 11:09:51;;;;;;;8.20;5.73;;;25.40;89.30;;;;;;5095083;28;20447;-45
2022/05/12 11:12:27;;;;;;;5.50;5.00;;;25.50;89.10;;;;;;5095534;28;20451;-45
2022/05/12 11:15:01;;;;;;;11.40;5.50;;;25.50;89.50;;;;;;5095121;28;20471;-45
2022/05/12 11:17:34;;;;;;;10.53;5.97;;;25.60;89.00;;;;;;5095420;28;20434;-46
2022/05/12 11:20:13;;;;;;;15.33;6.00;;;25.60;90.50;;;;;;5095087;28;20443;-45
2022/05/12 11:22:46;;;;;;;7.30;4.50;;;25.60;86.20;;;;;;5094980;28;20591;-45
2022/05/12 11:25:18;;;;;;;7.40;4.60;;;25.60;86.30;;;;;;5094916;28;20568;-45
2022/05/12 11:29:41;;;;;;;8.67;4.73;;;25.60;90.20;;;;;;5094891;28;20471;-46
2022/05/12 11:30:46;;;;;;;5.77;3.70;;;25.70;88.10;;;;;;5094605;28;20526;-46
2022/05/12 11:33:26;;;;;;;7.17;4.70;;;25.70;79.30;;;;;;5095240;28;20544;-46
2022/05/12 11:35:55;;;;;;;11.13;5.03;;;25.70;79.90;;;;;;5094754;28;20443;-46
2022/05/12 11:38:54;;;;;;;6.87;5.07;;;25.70;81.60;;;;;;5094974;28;20504;-45
2022/05/12 11:41:42;;;;;;;11.20;4.93;;;25.70;82.70;;;;;;5094229;28;21003;-45
2022/05/12 11:44:38;;;;;;;26.87;6.90;;;25.70;81.70;;;;;;5089940;28;20479;-45
2022/05/12 11:47:51;;;;;;;21.10;6.40;;;25.80;82.30;;;;;;5094900;28;20469;-45
2022/05/12 11:50:47;;;;;;;20.10;6.90;;;26.00;83.60;;;;;;5094504;28;20474;-46
2022/05/12 11:53:19;;;;;;;27.70;7.60;;;25.90;81.20;;;;;;5094672;28;20510;-45
2022/05/12 11:56:01;;;;;;;8.47;5.37;;;25.80;81.10;;;;;;5094552;28;20522;-47
2022/05/12 11:58:41;;;;;;;5.93;5.20;;;25.80;79.20;;;;;;5094030;28;20451;-45
2022/05/12 12:01:11;;;;;;;11.60;5.10;;;25.80;81.90;;;;;;5094169;28;20483;-48
2022/05/12 12:03:49;;;;;;;7.60;4.80;;;25.80;82.20;;;;;;5094321;28;20475;-45
2022/05/12 12:06:52;;;;;;;7.80;4.63;;;25.70;82.00;;;;;;5094631;28;20435;-45
2022/05/12 12:09:55;;;;;;;6.07;4.30;;;25.70;82.70;;;;;;5092823;28;20443;-48
2022/05/12 12:12:58;;;;;;;5.50;5.00;;;25.70;80.10;;;;;;5094628;28;20569;-45
2022/05/12 12:16:04;;;;;;;6.37;5.37;;;25.80;81.80;;;;;;5094042;28;20439;-47
2022/05/12 12:19:01;;;;;;;5.97;4.97;;;25.80;83.70;;;;;;5094065;28;20459;-45
2022/05/12 12:22:22;;;;;;;5.87;4.23;;;25.90;82.40;;;;;;5093923;28;20446;-47
2022/05/12 12:25:13;;;;;;;6.53;5.20;;;25.80;78.60;;;;;;5094121;28;20484;-45
2022/05/12 12:28:22;;;;;;;5.27;4.77;;;25.80;80.20;;;;;;5094748;28;20445;-48
2022/05/12 12:31:06;;;;;;;5.37;3.77;;;25.90;80.90;;;;;;5094274;28;20434;-45
2022/05/12 12:33:53;;;;;;;5.27;4.53;;;25.80;80.60;;;;;;5093966;28;20483;-45
2022/05/12 12:37:06;;;;;;;4.93;4.43;;;25.80;81.60;;;;;;5093859;28;20496;-48
2022/05/12 12:39:40;;;;;;;6.93;4.33;;;25.80;84.60;;;;;;5093665;28;20450;-45
2022/05/12 12:42:28;;;;;;;8.37;4.70;;;25.90;81.10;;;;;;5093327;28;20504;-46
2022/05/12 12:44:57;;;;;;;9.27;4.07;;;25.90;80.00;;;;;;5093581;28;20479;-46
2022/05/12 12:47:31;;;;;;;10.33;5.20;;;25.90;81.70;;;;;;5093612;28;20444;-45
2022/05/12 12:50:09;;;;;;;8.50;4.43;;;26.00;80.10;;;;;;5093371;28;20442;-45
2022/05/12 12:52:41;;;;;;;5.73;4.63;;;26.00;76.90;;;;;;5093327;28;20439;-45
2022/05/12 12:58:04;;;;;;;7.20;4.40;;;25.90;79.20;;;;;;5093309;28;20422;-45
2022/05/12 13:00:34;;;;;;;19.17;5.73;;;26.00;81.50;;;;;;5093334;28;20452;-44
2022/05/12 13:03:03;;;;;;;6.53;5.00;;;26.10;84.50;;;;;;5093095;28;20459;-45
2022/05/12 13:05:32;;;;;;;16.90;5.43;;;26.20;79.20;;;;;;5093214;28;20472;-46
2022/05/12 13:08:01;;;;;;;44.00;9.17;;;26.10;79.20;;;;;;5093518;28;20527;-47
2022/05/12 13:10:30;;;;;;;16.50;4.93;;;26.00;79.30;;;;;;5093095;28;20444;-45
2022/05/12 13:13:02;;;;;;;16.07;5.80;;;26.10;81.60;;;;;;5092923;28;20459;-45
2022/05/12 13:15:32;;;;;;;45.77;9.40;;;26.00;81.10;;;;;;5093314;28;21020;-45
2022/05/12 13:18:01;;;;;;;8.90;5.43;;;26.00;79.00;;;;;;5093415;28;20451;-47
2022/05/12 13:20:33;;;;;;;34.57;6.80;;;26.20;81.80;;;;;;5092407;28;20953;-45
2022/05/12 13:23:05;;;;;;;28.03;6.77;;;26.30;74.90;;;;;;5092622;28;20459;-45
2022/05/12 13:25:34;;;;;;;10.23;5.10;;;26.20;79.10;;;;;;5092787;28;20518;-46